createdAt,value
2023-04-05T00:03:01.387Z,3.67
2023-04-05T00:06:05.659Z,3.60
2023-04-05T00:09:10.867Z,3.90
2023-04-05T00:12:15.233Z,4.07
2023-04-05T00:15:19.178Z,3.57
2023-04-05T00:18:26.240Z,4.13
2023-04-05T00:21:29.755Z,3.87
2023-04-05T00:24:39.003Z,4.00
2023-04-05T00:27:45.330Z,4.40
2023-04-05T00:30:48.809Z,3.97
2023-04-05T00:33:53.340Z,3.90
2023-04-05T00:36:56.811Z,3.93
2023-04-05T00:40:01.891Z,4.20
2023-04-05T00:43:05.447Z,4.00
2023-04-05T00:46:10.281Z,4.20
2023-04-05T00:49:13.988Z,3.90
2023-04-05T00:52:23.383Z,4.13
2023-04-05T00:55:28.788Z,4.67
2023-04-05T00:58:33.905Z,4.50
2023-04-05T01:01:42.264Z,4.30
2023-04-05T01:04:53.591Z,4.27
2023-04-05T01:08:16.218Z,4.23
2023-04-05T01:11:22.140Z,4.43
2023-04-05T01:14:25.712Z,4.50
2023-04-05T01:17:36.952Z,4.50
2023-04-05T01:20:53.001Z,4.47
2023-04-05T01:24:15.452Z,4.33
2023-04-05T01:27:26.046Z,3.43
2023-04-05T01:30:38.113Z,4.40
2023-04-05T01:33:54.261Z,4.13
2023-04-05T01:37:04.281Z,3.83
2023-04-05T01:40:10.795Z,4.27
2023-04-05T01:43:15.466Z,4.70
2023-04-05T01:46:20.414Z,4.63
2023-04-05T01:49:24.963Z,4.53
2023-04-05T01:52:28.438Z,4.60
2023-04-05T01:55:31.975Z,3.90
2023-04-05T01:58:35.648Z,4.00
2023-04-05T02:01:40.650Z,4.20
2023-04-05T02:04:44.212Z,4.10
2023-04-05T02:07:47.725Z,3.60
2023-04-05T02:10:54.463Z,4.10
2023-04-05T02:13:58.150Z,4.40
2023-04-05T02:17:03.234Z,3.90
2023-04-05T02:20:08.947Z,4.10
2023-04-05T02:23:12.549Z,4.57
2023-04-05T02:26:16.194Z,4.83
2023-04-05T02:29:19.671Z,4.07
2023-04-05T02:32:25.103Z,4.60
2023-04-05T02:35:28.861Z,4.67
2023-04-05T02:38:32.520Z,4.07
2023-04-05T02:41:37.099Z,4.33
2023-04-05T02:44:40.969Z,4.37
2023-04-05T02:47:45.869Z,4.63
2023-04-05T02:50:50.142Z,4.87
2023-04-05T02:53:53.700Z,4.57
2023-04-05T02:56:57.963Z,4.90
2023-04-05T03:00:01.497Z,4.53
2023-04-05T03:03:06.482Z,5.00
2023-04-05T03:06:11.032Z,4.60
2023-04-05T03:09:14.786Z,4.47
2023-04-05T03:12:19.471Z,5.30
2023-04-05T03:15:23.011Z,5.53
2023-04-05T03:18:29.605Z,5.00
2023-04-05T03:21:33.858Z,4.30
2023-04-05T03:24:37.324Z,4.77
2023-04-05T03:27:40.841Z,4.57
2023-04-05T03:30:44.322Z,5.10
2023-04-05T03:33:49.221Z,4.13
2023-04-05T03:36:52.667Z,4.63
2023-04-05T03:39:56.198Z,4.87
2023-04-05T03:43:00.130Z,4.83
2023-04-05T03:46:03.741Z,5.43
2023-04-05T03:49:08.629Z,4.73
2023-04-05T03:52:12.290Z,5.10
2023-04-05T03:55:16.949Z,4.33
2023-04-05T03:58:20.792Z,5.13
2023-04-05T04:01:24.324Z,4.77
2023-04-05T04:04:29.893Z,4.50
2023-04-05T04:07:33.400Z,4.13
2023-04-05T04:10:37.244Z,4.43
2023-04-05T04:13:41.231Z,4.07
2023-04-05T04:16:45.051Z,4.63
2023-04-05T04:19:50.018Z,4.97
2023-04-05T04:22:54.040Z,4.27
2023-04-05T04:25:57.604Z,4.47
2023-04-05T04:29:01.516Z,4.27
2023-04-05T04:32:07.064Z,4.17
2023-04-05T04:35:14.605Z,4.73
2023-04-05T04:38:20.775Z,4.83
2023-04-05T04:41:26.900Z,4.63
2023-04-05T04:44:31.443Z,4.87
2023-04-05T04:47:35.738Z,4.63
2023-04-05T04:50:41.007Z,4.60
2023-04-05T04:53:44.571Z,4.30
2023-04-05T04:56:48.694Z,4.27
2023-04-05T04:59:52.197Z,3.80
2023-04-05T05:02:56.984Z,5.37
2023-04-05T05:06:02.661Z,4.80
2023-04-05T05:09:06.485Z,5.73
2023-04-05T05:12:10.064Z,5.17
2023-04-05T05:15:14.152Z,5.03
2023-04-05T05:18:17.888Z,5.20
2023-04-05T05:21:22.820Z,5.00
2023-04-05T05:24:26.386Z,4.50
2023-04-05T05:27:29.841Z,4.60
2023-04-05T05:30:35.005Z,5.00
2023-04-05T05:33:38.480Z,5.23
2023-04-05T05:36:43.348Z,5.03
2023-04-05T05:39:47.628Z,4.37
2023-04-05T05:42:52.676Z,4.17
2023-04-05T05:45:56.343Z,4.03
2023-04-05T05:48:59.817Z,4.60
2023-04-05T05:52:05.112Z,4.07
2023-04-05T05:55:09.933Z,4.67
2023-04-05T05:58:13.376Z,6.80
2023-04-05T06:01:16.969Z,6.37
2023-04-05T06:04:20.511Z,5.63
2023-04-05T06:07:25.634Z,6.37
2023-04-05T06:10:29.145Z,6.30
2023-04-05T06:13:33.541Z,6.70
2023-04-05T06:16:37.165Z,6.93
2023-04-05T06:19:40.988Z,6.17
2023-04-05T06:22:45.923Z,5.33
2023-04-05T06:25:49.506Z,5.40
2023-04-05T06:28:53.700Z,5.40
2023-04-05T06:31:57.480Z,5.40
2023-04-05T06:35:03.703Z,5.30
2023-04-05T06:38:09.547Z,4.37
2023-04-05T06:41:13.358Z,3.57
2023-04-05T06:44:16.931Z,2.83
2023-04-05T06:47:20.491Z,3.03
2023-04-05T06:50:24.170Z,3.10
2023-04-05T06:53:29.736Z,2.93
2023-04-05T06:56:33.457Z,2.83
2023-04-05T06:59:37.127Z,2.87
2023-04-05T07:02:41.291Z,2.63
2023-04-05T07:05:53.928Z,3.07
2023-04-05T07:08:58.817Z,2.77
2023-04-05T07:12:04.488Z,3.27
2023-04-05T07:15:13.009Z,3.27
2023-04-05T07:18:16.806Z,2.43
2023-04-05T07:21:20.367Z,2.60
2023-04-05T07:24:25.395Z,2.57
2023-04-05T07:27:30.314Z,2.50
2023-04-05T07:30:33.915Z,2.73
2023-04-05T07:33:37.609Z,2.57
2023-04-05T07:36:41.106Z,2.17
2023-04-05T07:39:45.958Z,2.87
2023-04-05T07:42:49.540Z,2.37
2023-04-05T07:45:53.917Z,2.70
2023-04-05T07:48:58.409Z,2.50
2023-04-05T07:52:01.901Z,2.67
2023-04-05T07:55:09.045Z,2.50
2023-04-05T07:58:12.582Z,2.30
2023-04-05T08:01:16.313Z,2.03
2023-04-05T08:04:21.037Z,2.40
2023-04-05T08:07:25.212Z,2.37
2023-04-05T08:10:30.150Z,2.30
2023-04-05T08:13:34.327Z,1.57
2023-04-05T08:16:37.880Z,2.03
2023-04-05T08:19:41.599Z,1.60
2023-04-05T08:22:45.100Z,1.80
2023-04-05T08:25:50.295Z,2.00
2023-04-05T08:28:54.023Z,2.17
2023-04-05T08:31:59.114Z,1.63
2023-04-05T08:35:02.785Z,1.70
2023-04-05T08:38:07.880Z,1.90
2023-04-05T08:41:19.749Z,1.60
2023-04-05T08:44:27.960Z,1.67
2023-04-05T08:47:32.703Z,1.73
2023-04-05T08:50:36.278Z,1.50
2023-04-05T08:53:39.927Z,1.77
2023-04-05T08:56:49.110Z,1.60
2023-04-05T08:59:53.007Z,1.57
2023-04-05T09:03:02.626Z,1.80
2023-04-05T09:06:12.030Z,1.57
2023-04-05T09:09:17.734Z,2.40
2023-04-05T09:12:23.788Z,1.93
2023-04-05T09:15:28.846Z,2.00
2023-04-05T09:18:32.623Z,1.93
2023-04-05T09:22:01.740Z,1.77
2023-04-05T09:25:05.645Z,2.10
2023-04-05T09:28:12.293Z,1.60
2023-04-05T09:31:31.963Z,1.70
2023-04-05T09:34:38.010Z,2.07
2023-04-05T09:37:54.447Z,2.13
2023-04-05T09:40:57.984Z,1.70
2023-04-05T09:44:03.158Z,1.83
2023-04-05T09:47:17.787Z,1.70
2023-04-05T09:50:21.883Z,1.33
2023-04-05T09:53:25.484Z,1.40
2023-04-05T09:56:31.383Z,1.50
2023-04-05T09:59:36.541Z,1.80
2023-04-05T10:02:41.464Z,1.77
2023-04-05T10:05:46.780Z,1.83
2023-04-05T10:08:51.442Z,1.80
2023-04-05T10:11:56.103Z,1.47
2023-04-05T10:15:01.235Z,1.30
2023-04-05T10:18:18.623Z,1.40
2023-04-05T10:21:25.048Z,1.80
2023-04-05T10:24:40.720Z,1.50
2023-04-05T10:27:51.994Z,1.30
2023-04-05T10:31:06.864Z,1.20
2023-04-05T10:34:25.921Z,1.30
2023-04-05T10:37:49.429Z,1.40
2023-04-05T10:41:06.844Z,1.40
2023-04-05T10:44:24.905Z,1.70
2023-04-05T10:47:38.168Z,1.53
2023-04-05T10:50:43.230Z,1.73
2023-04-05T10:53:49.273Z,1.60
2023-04-05T10:56:54.323Z,1.40
2023-04-05T11:00:00.722Z,1.80
2023-04-05T11:03:05.643Z,1.90
2023-04-05T11:06:26.056Z,1.97
2023-04-05T11:09:29.918Z,1.97
2023-04-05T11:13:14.190Z,1.80
2023-04-05T11:16:17.858Z,1.97
2023-04-05T11:19:55.023Z,1.80
2023-04-05T11:22:58.664Z,1.63
2023-04-05T11:26:07.927Z,1.90
2023-04-05T11:29:12.163Z,1.80
2023-04-05T11:32:15.748Z,1.90
2023-04-05T11:35:23.394Z,1.70
2023-04-05T11:38:26.990Z,1.63
2023-04-05T11:41:35.007Z,1.40
2023-04-05T11:44:48.254Z,1.80
2023-04-05T11:47:52.215Z,1.80
2023-04-05T11:50:59.438Z,1.87
2023-04-05T11:54:02.977Z,1.77
2023-04-05T11:57:07.166Z,2.10
2023-04-05T12:00:12.551Z,1.87
2023-04-05T12:03:17.920Z,1.50
2023-04-05T12:06:24.886Z,1.70
2023-04-05T12:09:28.551Z,2.00
2023-04-05T12:12:38.550Z,1.60
2023-04-05T12:15:42.803Z,1.77
2023-04-05T12:18:46.485Z,1.40
2023-04-05T12:21:52.031Z,2.10
2023-04-05T12:24:56.573Z,1.97
2023-04-05T12:28:08.404Z,2.10
2023-04-05T12:31:12.682Z,1.77
2023-04-05T12:34:25.883Z,1.73
2023-04-05T12:37:33.585Z,2.07
2023-04-05T12:40:38.870Z,2.17
2023-04-05T12:43:44.080Z,1.90
2023-04-05T12:46:49.042Z,1.90
2023-04-05T12:49:52.772Z,1.77
2023-04-05T12:53:00.449Z,1.63
2023-04-05T12:56:09.497Z,1.93
2023-04-05T12:59:13.322Z,1.90
2023-04-05T13:02:17.000Z,1.50
2023-04-05T13:05:25.173Z,2.03
2023-04-05T13:08:30.707Z,1.90
2023-04-05T13:11:34.258Z,1.97
2023-04-05T13:14:37.983Z,1.87
2023-04-05T13:17:41.687Z,1.80
2023-04-05T13:20:45.713Z,2.30
2023-04-05T13:23:50.724Z,2.00
2023-04-05T13:26:54.261Z,1.77
2023-04-05T13:29:57.855Z,2.10
2023-04-05T13:33:01.475Z,1.63
2023-04-05T13:36:05.509Z,2.20
2023-04-05T13:39:10.797Z,1.60
2023-04-05T13:42:14.522Z,1.80
2023-04-05T13:45:18.392Z,1.87
2023-04-05T13:48:21.960Z,1.80
2023-04-05T13:51:25.870Z,1.80
2023-04-05T13:54:30.950Z,1.80
2023-04-05T13:57:34.594Z,2.00
2023-04-05T14:00:40.281Z,1.77
2023-04-05T14:03:44.376Z,2.07
2023-04-05T14:06:48.079Z,2.23
2023-04-05T14:09:53.063Z,2.30
2023-04-05T14:12:56.613Z,2.50
2023-04-05T14:16:00.790Z,1.87
2023-04-05T14:19:04.543Z,2.10
2023-04-05T14:22:08.374Z,2.00
2023-04-05T14:25:13.508Z,1.60
2023-04-05T14:28:17.448Z,2.23
2023-04-05T14:31:21.181Z,2.20
2023-04-05T14:34:24.908Z,2.10
2023-04-05T14:37:28.582Z,1.80
2023-04-05T14:40:33.701Z,1.80
2023-04-05T14:43:38.593Z,1.80
2023-04-05T14:46:42.579Z,2.10
2023-04-05T14:49:46.189Z,2.10
2023-04-05T14:52:50.065Z,2.53
2023-04-05T14:55:55.096Z,1.73
2023-04-05T14:58:58.833Z,1.87
2023-04-05T15:02:02.907Z,2.33
2023-04-05T15:05:07.705Z,2.60
2023-04-05T15:08:11.332Z,1.90
2023-04-05T15:11:16.481Z,2.10
2023-04-05T15:14:31.185Z,2.13
2023-04-05T15:17:36.129Z,2.50
2023-04-05T15:20:40.001Z,2.23
2023-04-05T15:23:43.815Z,2.13
2023-04-05T15:26:48.967Z,2.30
2023-04-05T15:29:52.922Z,2.30
2023-04-05T15:32:56.866Z,2.97
2023-04-05T15:36:00.679Z,2.50
2023-04-05T15:39:05.293Z,2.33
2023-04-05T15:42:10.537Z,2.53
2023-04-05T15:45:14.239Z,2.70
2023-04-05T15:48:17.959Z,2.37
2023-04-05T15:51:21.824Z,2.80
2023-04-05T15:54:25.615Z,2.40
2023-04-05T15:57:30.815Z,3.40
2023-04-05T16:00:34.495Z,2.37
2023-04-05T16:03:38.356Z,3.63
2023-04-05T16:06:42.050Z,2.97
2023-04-05T16:09:46.276Z,2.67
2023-04-05T16:12:53.627Z,2.40
2023-04-05T16:15:57.439Z,2.50
2023-04-05T16:19:01.448Z,2.60
2023-04-05T16:22:06.159Z,2.60
2023-04-05T16:25:10.115Z,2.53
2023-04-05T16:28:15.099Z,2.60
2023-04-05T16:31:20.408Z,2.50
2023-04-05T16:34:24.022Z,3.37
2023-04-05T16:37:27.625Z,2.77
2023-04-05T16:40:31.405Z,3.07
2023-04-05T16:43:36.685Z,2.93
2023-04-05T16:46:40.398Z,2.30
2023-04-05T16:49:44.026Z,2.23
2023-04-05T16:52:47.928Z,2.20
2023-04-05T16:55:51.611Z,2.60
2023-04-05T16:58:57.535Z,2.40
2023-04-05T17:02:01.395Z,2.77
2023-04-05T17:05:06.002Z,2.30
2023-04-05T17:08:09.698Z,2.27
2023-04-05T17:11:13.390Z,2.27
2023-04-05T17:14:18.357Z,2.13
2023-04-05T17:17:21.964Z,2.67
2023-04-05T17:20:25.934Z,2.40
2023-04-05T17:23:29.863Z,2.23
2023-04-05T17:26:33.639Z,2.20
2023-04-05T17:29:38.811Z,2.60
2023-04-05T17:32:42.635Z,3.00
2023-04-05T17:35:46.288Z,3.47
2023-04-05T17:38:50.058Z,4.40
2023-04-05T17:41:55.912Z,4.13
2023-04-05T17:45:01.544Z,3.53
2023-04-05T17:48:05.251Z,3.20
2023-04-05T17:51:10.068Z,3.97
2023-04-05T17:54:15.449Z,3.50
2023-04-05T17:57:19.485Z,3.00
2023-04-05T18:00:25.195Z,3.00
2023-04-05T18:03:29.387Z,3.27
2023-04-05T18:06:33.123Z,3.20
2023-04-05T18:09:41.911Z,3.63
2023-04-05T18:12:45.508Z,3.23
2023-04-05T18:15:54.543Z,3.73
2023-04-05T18:18:58.278Z,3.40
2023-04-05T18:22:02.239Z,3.47
2023-04-05T18:25:08.702Z,3.40
2023-04-05T18:28:22.368Z,3.10
2023-04-05T18:31:28.487Z,4.60
2023-04-05T18:34:32.194Z,3.70
2023-04-05T18:37:36.526Z,4.07
2023-04-05T18:40:40.223Z,3.90
2023-04-05T18:43:43.852Z,4.10
2023-04-05T18:46:50.267Z,3.40
2023-04-05T18:49:54.647Z,3.33
2023-04-05T18:52:58.259Z,3.87
2023-04-05T18:56:01.932Z,3.27
2023-04-05T18:59:05.911Z,4.33
2023-04-05T19:02:11.723Z,4.93
2023-04-05T19:05:15.454Z,4.30
2023-04-05T19:08:21.005Z,4.60
2023-04-05T19:11:25.054Z,4.50
2023-04-05T19:14:28.737Z,4.37
2023-04-05T19:17:33.794Z,4.17
2023-04-05T19:20:37.601Z,4.70
2023-04-05T19:23:42.107Z,4.70
2023-04-05T19:26:46.135Z,4.30
2023-04-05T19:29:49.958Z,4.30
2023-04-05T19:32:56.750Z,4.20
2023-04-05T19:36:01.139Z,4.57
2023-04-05T19:39:05.690Z,4.87
2023-04-05T19:42:09.439Z,4.97
2023-04-05T19:45:23.715Z,4.93
2023-04-05T19:48:38.898Z,5.80
2023-04-05T19:51:43.748Z,5.60
2023-04-05T19:54:47.764Z,5.03
2023-04-05T19:57:51.533Z,5.53
2023-04-05T20:00:55.633Z,5.50
2023-04-05T20:04:01.434Z,5.10
2023-04-05T20:07:09.784Z,6.03
2023-04-05T20:10:17.091Z,5.60
2023-04-05T20:13:21.276Z,5.03
2023-04-05T20:16:28.410Z,5.73
2023-04-05T20:19:33.745Z,6.00
2023-04-05T20:22:39.235Z,5.63
2023-04-05T20:25:46.832Z,5.97
2023-04-05T20:28:54.641Z,5.50
2023-04-05T20:31:58.312Z,5.83
2023-04-05T20:35:03.722Z,5.87
2023-04-05T20:38:07.472Z,5.97
2023-04-05T20:41:12.511Z,6.50
2023-04-05T20:44:16.101Z,6.60
2023-04-05T20:47:19.680Z,6.87
2023-04-05T20:50:24.875Z,6.43
2023-04-05T20:53:29.167Z,6.83
2023-04-05T20:56:32.771Z,6.63
2023-04-05T20:59:36.549Z,6.50
2023-04-05T21:02:40.337Z,6.60
2023-04-05T21:05:45.543Z,7.10
2023-04-05T21:08:49.143Z,6.43
2023-04-05T21:11:52.722Z,7.03
2023-04-05T21:14:56.333Z,6.40
2023-04-05T21:18:00.777Z,6.77
2023-04-05T21:21:08.064Z,7.27
2023-04-05T21:24:11.843Z,6.30
2023-04-05T21:27:15.603Z,6.97
2023-04-05T21:30:19.984Z,7.30
2023-04-05T21:33:23.712Z,7.10
2023-04-05T21:36:29.238Z,6.87
2023-04-05T21:39:33.260Z,7.30
2023-04-05T21:42:36.796Z,6.90
2023-04-05T21:45:40.462Z,8.00
2023-04-05T21:48:43.997Z,7.23
2023-04-05T21:51:49.181Z,8.03
2023-04-05T21:54:53.008Z,8.30
2023-04-05T21:57:56.607Z,7.57
2023-04-05T22:01:00.354Z,7.90
2023-04-05T22:04:04.052Z,7.73
2023-04-05T22:07:09.326Z,7.30
2023-04-05T22:10:13.008Z,7.07
2023-04-05T22:13:16.580Z,8.20
2023-04-05T22:16:20.388Z,9.13
2023-04-05T22:19:23.949Z,8.70
2023-04-05T22:22:28.888Z,8.87
2023-04-05T22:25:32.431Z,9.47
2023-04-05T22:28:36.310Z,9.30
2023-04-05T22:31:39.865Z,8.30
2023-04-05T22:34:44.355Z,8.87
2023-04-05T22:37:49.228Z,10.17
2023-04-05T22:40:52.913Z,12.30
2023-04-05T22:43:56.495Z,11.53
2023-04-05T22:47:00.093Z,9.33
2023-04-05T22:50:03.714Z,9.97
2023-04-05T22:53:08.741Z,9.47
2023-04-05T22:56:12.315Z,10.23
2023-04-05T22:59:16.188Z,9.50
2023-04-05T23:02:20.837Z,10.33
2023-04-05T23:05:24.896Z,10.33
2023-04-05T23:08:30.011Z,10.83
2023-04-05T23:11:33.570Z,10.40
2023-04-05T23:14:37.331Z,10.50
2023-04-05T23:17:41.090Z,9.57
2023-04-05T23:20:44.677Z,9.50
2023-04-05T23:23:49.671Z,9.20
2023-04-05T23:26:53.323Z,9.20
2023-04-05T23:29:57.479Z,10.03
2023-04-05T23:33:01.055Z,8.40
2023-04-05T23:36:05.013Z,10.47
2023-04-05T23:39:10.099Z,8.60
2023-04-05T23:42:16.229Z,8.63
2023-04-05T23:45:29.958Z,7.90
2023-04-05T23:48:33.487Z,8.83
2023-04-05T23:51:37.000Z,8.13
2023-04-05T23:54:41.969Z,8.73
2023-04-05T23:57:45.726Z,8.23
